createdAt,value
2019-01-23T00:00:36.480Z,73.27
2019-01-23T00:03:03.368Z,75.35
2019-01-23T00:05:30.007Z,76.73
2019-01-23T00:07:56.676Z,73.07
2019-01-23T00:10:23.355Z,73.03
2019-01-23T00:12:49.997Z,89.90
2019-01-23T00:15:16.940Z,61.92
2019-01-23T00:17:44.814Z,66.70
2019-01-23T00:20:11.439Z,67.83
2019-01-23T00:22:38.293Z,73.87
2019-01-23T00:25:05.022Z,59.73
2019-01-23T00:27:31.630Z,82.13
2019-01-23T00:29:58.568Z,74.50
2019-01-23T00:32:25.413Z,82.13
2019-01-23T00:34:52.005Z,72.43
2019-01-23T00:37:18.931Z,78.53
2019-01-23T00:39:46.383Z,74.75
2019-01-23T00:42:13.184Z,74.77
2019-01-23T00:44:39.853Z,80.87
2019-01-23T00:47:06.583Z,80.17
2019-01-23T00:49:33.471Z,92.13
2019-01-23T00:52:00.206Z,88.63
2019-01-23T00:54:26.815Z,75.73
2019-01-23T00:56:53.418Z,71.37
2019-01-23T00:59:20.053Z,78.33
2019-01-23T01:01:46.692Z,75.97
2019-01-23T01:04:13.302Z,86.47
2019-01-23T01:06:41.193Z,70.70
2019-01-23T01:09:08.021Z,82.30
2019-01-23T01:11:34.975Z,69.10
2019-01-23T01:14:01.564Z,70.53
2019-01-23T01:16:28.311Z,63.03
2019-01-23T01:18:54.973Z,73.23
2019-01-23T01:21:21.947Z,61.67
2019-01-23T01:23:49.460Z,64.70
2019-01-23T01:26:20.776Z,62.40
2019-01-23T01:28:55.816Z,65.95
2019-01-23T01:31:19.869Z,69.15
2019-01-23T01:36:34.385Z,59.93
2019-01-23T01:39:03.099Z,70.33
2019-01-23T01:41:30.458Z,61.02
2019-01-23T01:43:59.042Z,64.07
2019-01-23T01:46:25.751Z,60.20
2019-01-23T01:48:53.289Z,58.23
2019-01-23T01:51:20.034Z,57.10
2019-01-23T01:53:46.958Z,61.57
2019-01-23T01:56:15.862Z,67.67
2019-01-23T01:58:44.106Z,74.60
2019-01-23T02:01:10.735Z,62.27
2019-01-23T02:03:40.394Z,61.80
2019-01-23T02:06:11.126Z,59.97
2019-01-23T02:08:39.421Z,63.87
2019-01-23T02:11:06.975Z,62.03
2019-01-23T02:13:34.622Z,67.73
2019-01-23T02:16:01.636Z,75.35
2019-01-23T02:18:28.244Z,61.20
2019-01-23T02:20:55.145Z,66.35
2019-01-23T02:23:22.494Z,62.53
2019-01-23T02:25:49.507Z,74.60
2019-01-23T02:28:16.118Z,61.40
2019-01-23T02:30:42.926Z,79.23
2019-01-23T02:33:12.511Z,75.00
2019-01-23T02:35:40.159Z,83.90
2019-01-23T02:38:08.678Z,66.27
2019-01-23T02:40:37.481Z,65.93
2019-01-23T02:43:04.177Z,65.43
2019-01-23T02:45:33.400Z,66.57
2019-01-23T02:48:00.359Z,71.20
2019-01-23T02:50:27.045Z,78.40
2019-01-23T02:52:58.508Z,69.70
2019-01-23T02:55:27.137Z,75.47
2019-01-23T02:57:55.229Z,67.77
2019-01-23T03:00:22.293Z,75.57
2019-01-23T03:02:49.315Z,81.33
2019-01-23T03:05:17.185Z,87.27
2019-01-23T03:07:46.511Z,68.04
2019-01-23T03:10:13.465Z,73.57
2019-01-23T03:12:41.387Z,79.77
2019-01-23T03:15:08.209Z,72.47
2019-01-23T03:17:36.570Z,72.30
2019-01-23T03:20:04.294Z,81.17
2019-01-23T03:22:33.764Z,80.13
2019-01-23T03:25:01.410Z,69.57
2019-01-23T03:27:34.644Z,84.23
2019-01-23T03:30:05.053Z,77.65
2019-01-23T03:32:32.741Z,74.07
2019-01-23T03:35:00.407Z,79.17
2019-01-23T03:37:35.266Z,82.20
2019-01-23T03:40:03.818Z,82.60
2019-01-23T03:42:33.750Z,89.53
2019-01-23T03:45:00.895Z,85.62
2019-01-23T03:47:28.891Z,75.40
2019-01-23T03:49:57.800Z,92.30
2019-01-23T03:52:28.004Z,75.75
2019-01-23T03:54:55.695Z,74.27
2019-01-23T03:57:28.670Z,80.93
2019-01-23T03:59:55.738Z,72.20
2019-01-23T04:02:22.613Z,85.92
2019-01-23T04:04:49.569Z,72.30
2019-01-23T04:07:17.236Z,79.55
2019-01-23T04:09:43.899Z,71.07
2019-01-23T04:12:10.714Z,80.53
2019-01-23T04:14:37.729Z,70.95
2019-01-23T04:17:04.916Z,67.35
2019-01-23T04:19:31.878Z,81.20
2019-01-23T04:22:01.219Z,67.55
2019-01-23T04:24:29.213Z,86.00
2019-01-23T04:26:57.100Z,74.73
2019-01-23T04:29:26.656Z,71.50
2019-01-23T04:31:55.568Z,77.20
2019-01-23T04:34:23.397Z,64.17
2019-01-23T04:36:50.136Z,61.33
2019-01-23T04:39:19.213Z,62.35
2019-01-23T04:41:48.422Z,64.47
2019-01-23T04:44:15.700Z,61.40
2019-01-23T04:46:44.471Z,66.73
2019-01-23T04:52:04.756Z,62.10
2019-01-23T04:54:34.604Z,63.10
2019-01-23T04:57:03.149Z,74.87
2019-01-23T04:59:29.857Z,58.97
2019-01-23T05:01:59.853Z,72.30
2019-01-23T05:04:27.540Z,57.95
2019-01-23T05:06:57.570Z,65.92
2019-01-23T05:09:25.708Z,71.67
2019-01-23T05:11:55.664Z,65.83
2019-01-23T05:14:34.411Z,65.37
2019-01-23T05:17:01.124Z,63.42
2019-01-23T05:19:28.045Z,70.50
2019-01-23T05:21:57.368Z,74.10
2019-01-23T05:24:25.049Z,64.93
2019-01-23T05:26:52.916Z,60.87
2019-01-23T05:29:23.551Z,64.90
2019-01-23T05:31:54.481Z,57.87
2019-01-23T05:34:26.361Z,53.83
2019-01-23T05:36:55.617Z,51.02
2019-01-23T05:39:24.010Z,59.03
2019-01-23T05:41:51.690Z,58.97
2019-01-23T05:44:21.303Z,56.57
2019-01-23T05:46:49.619Z,64.80
2019-01-23T05:49:16.311Z,55.03
2019-01-23T05:51:43.114Z,58.40
2019-01-23T05:54:12.562Z,62.90
2019-01-23T05:56:39.227Z,66.97
2019-01-23T05:59:06.144Z,56.63
2019-01-23T06:01:32.789Z,52.03
2019-01-23T06:03:59.507Z,57.83
2019-01-23T06:06:26.340Z,58.00
2019-01-23T06:08:53.239Z,52.10
2019-01-23T06:11:21.583Z,52.70
2019-01-23T06:13:48.857Z,59.57
2019-01-23T06:16:15.528Z,55.63
2019-01-23T06:18:42.421Z,49.38
2019-01-23T06:21:09.617Z,47.40
2019-01-23T06:23:36.567Z,59.27
2019-01-23T06:26:03.479Z,53.78
2019-01-23T06:28:30.095Z,49.30
2019-01-23T06:30:58.985Z,52.43
2019-01-23T06:33:25.679Z,52.60
2019-01-23T06:35:53.840Z,54.70
2019-01-23T06:38:20.959Z,53.58
2019-01-23T06:40:49.198Z,59.58
2019-01-23T06:43:16.190Z,61.57
2019-01-23T06:45:44.485Z,63.30
2019-01-23T06:48:12.301Z,58.40
2019-01-23T06:50:39.792Z,57.87
2019-01-23T06:53:13.817Z,53.92
2019-01-23T06:55:37.051Z,55.05
2019-01-23T06:58:04.327Z,54.47
2019-01-23T07:03:19.599Z,53.74
2019-01-23T07:05:46.225Z,52.37
2019-01-23T07:08:12.843Z,51.20
2019-01-23T07:10:39.433Z,53.60
2019-01-23T07:13:06.404Z,48.13
2019-01-23T07:15:33.320Z,56.50
2019-01-23T07:17:59.947Z,47.27
2019-01-23T07:20:26.590Z,49.83
2019-01-23T07:22:53.443Z,48.42
2019-01-23T07:25:20.452Z,54.23
2019-01-23T07:27:47.060Z,54.13
2019-01-23T07:30:13.678Z,51.77
2019-01-23T07:32:40.559Z,61.80
2019-01-23T07:35:07.189Z,59.40
2019-01-23T07:37:33.816Z,55.37
2019-01-23T07:40:00.736Z,55.77
2019-01-23T07:42:27.739Z,51.45
2019-01-23T07:44:54.764Z,51.63
2019-01-23T07:47:22.120Z,52.00
2019-01-23T07:49:50.123Z,53.38
2019-01-23T07:52:16.861Z,53.90
2019-01-23T07:54:43.771Z,65.03
2019-01-23T07:57:10.441Z,58.63
2019-01-23T07:59:37.063Z,64.73
2019-01-23T08:02:04.629Z,60.83
2019-01-23T08:04:31.230Z,56.20
2019-01-23T08:06:57.949Z,53.90
2019-01-23T08:09:24.576Z,50.65
2019-01-23T08:11:51.243Z,54.97
2019-01-23T08:14:18.021Z,51.63
2019-01-23T08:16:44.640Z,51.40
2019-01-23T08:19:13.046Z,48.15
2019-01-23T08:21:41.986Z,58.30
2019-01-23T08:24:12.336Z,55.67
2019-01-23T08:26:41.271Z,51.20
2019-01-23T08:29:09.644Z,50.83
2019-01-23T08:31:36.282Z,49.03
2019-01-23T08:34:05.476Z,51.53
2019-01-23T08:36:35.955Z,50.50
2019-01-23T08:39:05.260Z,53.43
2019-01-23T08:41:33.296Z,50.45
2019-01-23T08:43:59.955Z,46.40
2019-01-23T08:46:28.927Z,48.63
2019-01-23T08:48:58.268Z,53.20
2019-01-23T08:51:25.053Z,47.60
2019-01-23T08:53:53.689Z,52.63
2019-01-23T08:56:21.027Z,51.17
2019-01-23T08:58:47.707Z,53.40
2019-01-23T09:01:16.840Z,52.57
2019-01-23T09:03:45.761Z,54.77
2019-01-23T09:06:12.348Z,49.97
2019-01-23T09:08:39.787Z,50.67
2019-01-23T09:11:10.831Z,52.73
2019-01-23T09:13:38.783Z,53.67
2019-01-23T09:16:05.878Z,51.03
2019-01-23T09:18:35.266Z,46.47
2019-01-23T09:21:03.069Z,50.60
2019-01-23T09:23:33.117Z,55.98
2019-01-23T09:26:02.359Z,53.25
2019-01-23T09:28:31.531Z,47.67
2019-01-23T09:30:59.174Z,47.13
2019-01-23T09:33:29.034Z,49.85
2019-01-23T09:35:56.399Z,52.78
2019-01-23T09:38:25.569Z,47.90
2019-01-23T09:40:58.625Z,53.58
2019-01-23T09:43:28.434Z,49.30
2019-01-23T09:45:55.541Z,51.53
2019-01-23T09:48:23.626Z,44.63
2019-01-23T09:50:53.777Z,49.70
2019-01-23T09:53:24.805Z,46.93
2019-01-23T09:55:52.479Z,44.50
2019-01-23T09:58:19.080Z,47.43
2019-01-23T10:01:06.738Z,44.70
2019-01-23T10:06:19.669Z,45.67
2019-01-23T10:08:49.396Z,45.50
2019-01-23T10:11:29.316Z,42.77
2019-01-23T10:13:51.309Z,48.90
2019-01-23T10:16:21.747Z,44.30
2019-01-23T10:18:56.042Z,44.40
2019-01-23T10:21:31.108Z,51.13
2019-01-23T10:24:01.477Z,51.20
2019-01-23T10:26:28.121Z,46.27
2019-01-23T10:28:55.256Z,48.37
2019-01-23T10:31:22.413Z,51.83
2019-01-23T10:33:52.060Z,46.23
2019-01-23T10:36:21.263Z,46.63
2019-01-23T10:38:48.379Z,53.87
2019-01-23T10:41:18.759Z,46.00
2019-01-23T10:43:45.385Z,50.47
2019-01-23T10:46:15.037Z,49.87
2019-01-23T10:48:43.982Z,54.37
2019-01-23T10:51:15.001Z,46.77
2019-01-23T10:53:41.674Z,46.47
2019-01-23T10:56:13.184Z,50.60
2019-01-23T10:58:39.578Z,52.10
2019-01-23T11:01:06.212Z,50.83
2019-01-23T11:03:35.372Z,52.40
2019-01-23T11:06:03.562Z,46.63
2019-01-23T11:08:30.464Z,43.20
2019-01-23T11:10:57.878Z,50.25
2019-01-23T11:13:24.887Z,48.10
2019-01-23T11:15:53.621Z,50.57
2019-01-23T11:18:24.753Z,45.47
2019-01-23T11:20:51.635Z,49.80
2019-01-23T11:23:21.314Z,41.45
2019-01-23T11:25:48.996Z,44.88
2019-01-23T11:28:16.815Z,46.60
2019-01-23T11:30:43.767Z,40.47
2019-01-23T11:33:10.675Z,38.37
2019-01-23T11:35:38.476Z,46.67
2019-01-23T11:38:09.897Z,42.80
2019-01-23T11:40:36.880Z,46.90
2019-01-23T11:43:15.921Z,40.38
2019-01-23T11:45:42.874Z,43.68
2019-01-23T11:48:11.288Z,45.37
2019-01-23T11:50:38.088Z,42.87
2019-01-23T11:53:06.988Z,43.83
2019-01-23T11:55:37.061Z,49.73
2019-01-23T11:58:03.775Z,39.87
2019-01-23T12:00:30.437Z,44.80
2019-01-23T12:02:59.681Z,42.08
2019-01-23T12:05:28.750Z,42.07
2019-01-23T12:07:58.696Z,41.23
2019-01-23T12:10:25.557Z,42.70
2019-01-23T12:12:53.095Z,42.10
2019-01-23T12:15:23.526Z,40.57
2019-01-23T12:17:49.905Z,41.80
2019-01-23T12:20:16.539Z,42.47
2019-01-23T12:22:43.500Z,36.88
2019-01-23T12:25:10.158Z,39.37
2019-01-23T12:27:39.795Z,45.30
2019-01-23T12:30:10.138Z,42.20
2019-01-23T12:32:39.050Z,42.43
2019-01-23T12:35:07.868Z,43.23
2019-01-23T12:37:34.763Z,40.73
2019-01-23T12:40:01.672Z,37.33
2019-01-23T12:42:30.674Z,36.43
2019-01-23T12:45:01.906Z,40.83
2019-01-23T12:47:28.822Z,41.33
2019-01-23T12:49:55.497Z,44.73
2019-01-23T12:52:22.098Z,46.40
2019-01-23T12:54:52.802Z,37.73
2019-01-23T12:57:20.382Z,41.83
2019-01-23T12:59:48.236Z,42.90
2019-01-23T13:02:16.994Z,44.00
2019-01-23T13:04:45.410Z,42.73
2019-01-23T13:07:13.722Z,34.00
2019-01-23T13:09:40.115Z,48.40
2019-01-23T13:12:09.259Z,39.70
2019-01-23T13:14:39.652Z,40.15
2019-01-23T13:17:08.268Z,38.70
2019-01-23T13:19:35.510Z,38.53
2019-01-23T13:22:04.293Z,40.43
2019-01-23T13:24:31.268Z,38.97
2019-01-23T13:27:00.472Z,36.47
2019-01-23T13:29:29.090Z,39.87
2019-01-23T13:31:57.255Z,38.15
2019-01-23T13:34:24.963Z,40.00
2019-01-23T13:36:51.557Z,44.63
2019-01-23T13:39:18.492Z,49.17
2019-01-23T13:41:45.978Z,38.77
2019-01-23T13:44:14.483Z,43.47
2019-01-23T13:46:42.304Z,39.87
2019-01-23T13:49:10.036Z,41.58
2019-01-23T13:51:38.027Z,42.75
2019-01-23T13:54:05.642Z,42.83
2019-01-23T13:56:33.198Z,43.85
2019-01-23T13:59:05.914Z,42.73
2019-01-23T14:01:33.825Z,46.48
2019-01-23T14:04:03.513Z,43.48
2019-01-23T14:06:34.783Z,42.30
2019-01-23T14:09:02.930Z,43.30
2019-01-23T14:11:33.163Z,40.07
2019-01-23T14:14:01.103Z,41.63
2019-01-23T14:16:32.365Z,42.60
2019-01-23T14:19:03.606Z,44.20
2019-01-23T14:21:36.241Z,42.73
2019-01-23T14:24:05.165Z,43.40
2019-01-23T14:26:34.360Z,49.13
2019-01-23T14:29:01.218Z,47.85
2019-01-23T14:31:38.536Z,46.77
2019-01-23T14:34:05.927Z,41.47
2019-01-23T14:36:33.639Z,42.53
2019-01-23T14:39:01.729Z,44.57
2019-01-23T14:41:28.343Z,49.07
2019-01-23T14:44:03.175Z,41.28
2019-01-23T14:46:28.230Z,44.07
2019-01-23T14:49:05.981Z,39.63
2019-01-23T14:51:41.320Z,37.42
2019-01-23T14:54:08.727Z,40.73
2019-01-23T14:56:36.443Z,42.67
2019-01-23T15:01:51.208Z,45.23
2019-01-23T15:07:10.627Z,56.93
2019-01-23T15:09:37.848Z,51.67
2019-01-23T15:12:05.940Z,46.73
2019-01-23T15:14:33.754Z,41.93
2019-01-23T15:17:03.061Z,47.03
2019-01-23T15:19:30.680Z,42.07
2019-01-23T15:22:01.586Z,49.80
2019-01-23T15:24:30.962Z,48.13
2019-01-23T15:26:59.080Z,51.10
2019-01-23T15:29:27.339Z,53.90
2019-01-23T15:31:55.499Z,50.27
2019-01-23T15:34:26.647Z,53.33
2019-01-23T15:36:54.545Z,51.37
2019-01-23T15:39:25.637Z,57.13
2019-01-23T15:41:52.682Z,65.40
2019-01-23T15:44:29.603Z,49.73
2019-01-23T15:47:04.106Z,50.60
2019-01-23T15:49:32.543Z,55.15
2019-01-23T15:52:01.688Z,51.55
2019-01-23T15:54:28.834Z,51.63
2019-01-23T15:59:43.525Z,49.70
2019-01-23T16:02:14.250Z,48.00
2019-01-23T16:04:41.888Z,50.57
2019-01-23T16:07:13.330Z,47.90
2019-01-23T16:09:42.046Z,46.13
2019-01-23T16:12:09.450Z,52.03
2019-01-23T16:14:38.954Z,55.87
2019-01-23T16:17:05.800Z,51.07
2019-01-23T16:19:32.832Z,53.73
2019-01-23T16:21:59.685Z,51.62
2019-01-23T16:24:26.377Z,67.53
2019-01-23T16:26:53.062Z,54.30
2019-01-23T16:29:19.834Z,56.20
2019-01-23T16:31:46.499Z,52.90
2019-01-23T16:34:13.136Z,62.60
2019-01-23T16:36:40.026Z,58.93
2019-01-23T16:39:07.003Z,77.22
2019-01-23T16:41:33.892Z,57.40
2019-01-23T16:44:01.403Z,56.45
2019-01-23T16:46:28.142Z,50.23
2019-01-23T16:48:55.537Z,64.70
2019-01-23T16:51:22.180Z,60.60
2019-01-23T16:53:49.096Z,61.30
2019-01-23T16:56:15.698Z,60.93
2019-01-23T16:58:42.323Z,58.83
2019-01-23T17:01:09.577Z,64.37
2019-01-23T17:03:36.363Z,59.43
2019-01-23T17:06:03.279Z,61.55
2019-01-23T17:08:29.950Z,57.70
2019-01-23T17:10:56.878Z,54.57
2019-01-23T17:13:23.491Z,60.50
2019-01-23T17:15:50.479Z,60.30
2019-01-23T17:18:17.377Z,57.25
2019-01-23T17:20:47.545Z,52.33
2019-01-23T17:23:16.412Z,58.60
2019-01-23T17:25:43.018Z,53.57
2019-01-23T17:28:09.619Z,55.03
2019-01-23T17:30:38.865Z,50.67
2019-01-23T17:33:05.665Z,56.10
2019-01-23T17:35:32.528Z,52.05
2019-01-23T17:37:59.547Z,54.70
2019-01-23T17:40:26.287Z,56.37
2019-01-23T17:42:52.895Z,60.80
2019-01-23T17:45:20.473Z,56.50
2019-01-23T17:47:48.122Z,57.13
2019-01-23T17:50:14.890Z,58.17
2019-01-23T17:52:42.094Z,52.25
2019-01-23T17:55:10.174Z,60.17
2019-01-23T17:57:37.985Z,56.00
2019-01-23T18:00:05.242Z,52.20
2019-01-23T18:02:33.255Z,53.00
2019-01-23T18:05:00.229Z,60.60
2019-01-23T18:07:27.160Z,60.08
2019-01-23T18:09:53.790Z,53.90
2019-01-23T18:12:20.397Z,59.37
2019-01-23T18:14:49.126Z,62.20
2019-01-23T18:17:16.529Z,57.70
2019-01-23T18:19:43.484Z,54.47
2019-01-23T18:24:51.838Z,60.17
2019-01-23T18:27:19.501Z,54.77
2019-01-23T18:32:32.853Z,59.00
2019-01-23T18:35:04.575Z,61.47
2019-01-23T18:37:32.268Z,58.10
2019-01-23T18:40:05.050Z,53.78
2019-01-23T18:42:31.981Z,55.90
2019-01-23T18:44:59.378Z,55.28
2019-01-23T18:47:29.915Z,52.93
2019-01-23T18:50:00.370Z,61.23
2019-01-23T18:52:30.360Z,54.07
2019-01-23T18:54:58.784Z,55.97
2019-01-23T18:57:26.647Z,71.23
2019-01-23T18:59:59.318Z,66.30
2019-01-23T19:02:29.802Z,62.87
2019-01-23T19:05:02.745Z,56.87
2019-01-23T19:07:31.685Z,68.75
2019-01-23T19:10:03.421Z,57.67
2019-01-23T19:12:33.232Z,59.15
2019-01-23T19:15:01.782Z,58.00
2019-01-23T19:17:30.591Z,55.93
2019-01-23T19:20:10.954Z,62.08
2019-01-23T19:22:42.008Z,62.30
2019-01-23T19:25:11.086Z,56.43
2019-01-23T19:27:38.969Z,53.20
2019-01-23T19:30:09.313Z,72.50
2019-01-23T19:32:39.517Z,63.63
2019-01-23T19:35:07.152Z,66.27
2019-01-23T19:37:34.217Z,59.27
2019-01-23T19:40:00.955Z,64.50
2019-01-23T19:42:28.813Z,60.27
2019-01-23T19:44:57.408Z,60.03
2019-01-23T19:47:25.343Z,59.03
2019-01-23T19:49:52.380Z,55.20
2019-01-23T19:52:19.641Z,60.50
2019-01-23T19:54:49.939Z,59.97
2019-01-23T19:57:17.727Z,68.22
2019-01-23T19:59:49.694Z,65.30
2019-01-23T20:02:19.873Z,64.23
2019-01-23T20:04:46.495Z,61.27
2019-01-23T20:07:15.365Z,57.65
2019-01-23T20:09:44.100Z,67.77
2019-01-23T20:12:15.683Z,59.42
2019-01-23T20:14:41.638Z,59.37
2019-01-23T20:17:09.770Z,60.70
2019-01-23T20:19:38.968Z,73.30
2019-01-23T20:22:05.794Z,62.67
2019-01-23T20:24:36.612Z,62.73
2019-01-23T20:27:05.524Z,64.80
2019-01-23T20:29:32.642Z,72.83
2019-01-23T20:32:02.916Z,60.77
2019-01-23T20:34:33.129Z,59.83
2019-01-23T20:37:03.764Z,64.30
2019-01-23T20:39:34.810Z,63.92
2019-01-23T20:42:03.360Z,67.40
2019-01-23T20:44:31.861Z,74.82
2019-01-23T20:47:00.832Z,69.40
2019-01-23T20:49:27.677Z,68.17
2019-01-23T20:51:54.414Z,67.43
2019-01-23T20:54:21.369Z,63.95
2019-01-23T20:56:49.927Z,61.37
2019-01-23T20:59:16.582Z,58.87
2019-01-23T21:01:47.217Z,82.73
2019-01-23T21:04:13.888Z,68.77
2019-01-23T21:06:40.871Z,65.35
2019-01-23T21:09:07.592Z,60.73
2019-01-23T21:11:34.686Z,61.88
2019-01-23T21:14:04.536Z,63.83
2019-01-23T21:16:32.060Z,70.72
2019-01-23T21:18:58.694Z,59.67
2019-01-23T21:21:27.921Z,71.60
2019-01-23T21:23:55.139Z,80.60
2019-01-23T21:26:21.766Z,66.00
2019-01-23T21:28:48.965Z,68.55
2019-01-23T21:31:16.606Z,75.92
2019-01-23T21:33:45.530Z,82.97
2019-01-23T21:36:12.868Z,75.32
2019-01-23T21:38:42.171Z,70.35
2019-01-23T21:41:08.897Z,71.03
2019-01-23T21:43:35.980Z,75.62
2019-01-23T21:46:21.548Z,79.73
2019-01-23T21:48:50.292Z,70.13
2019-01-23T22:16:41.542Z,68.20
2019-01-23T22:19:08.246Z,69.97
2019-01-23T22:21:35.479Z,66.50
2019-01-23T22:24:02.424Z,84.20
2019-01-23T22:26:29.296Z,82.33
2019-01-23T22:28:56.221Z,84.18
2019-01-23T22:31:22.965Z,75.37
2019-01-23T22:33:55.925Z,87.73
2019-01-23T22:36:17.953Z,77.50
2019-01-23T22:38:48.482Z,73.63
2019-01-23T22:41:21.994Z,71.70
2019-01-23T22:43:48.907Z,79.63
2019-01-23T22:46:15.633Z,71.23
2019-01-23T22:48:47.449Z,71.87
2019-01-23T22:51:14.484Z,76.27
2019-01-23T22:53:43.391Z,64.17
2019-01-23T22:56:11.015Z,75.87
2019-01-23T22:58:39.810Z,64.30
2019-01-23T23:01:07.160Z,70.10
2019-01-23T23:03:40.341Z,60.83
2019-01-23T23:06:14.056Z,56.98
2019-01-23T23:08:44.727Z,63.17
2019-01-23T23:11:16.046Z,64.63
2019-01-23T23:13:45.392Z,61.20
2019-01-23T23:16:12.122Z,55.93
2019-01-23T23:18:40.028Z,62.93
2019-01-23T23:21:08.715Z,67.23
2019-01-23T23:23:38.029Z,61.23
2019-01-23T23:26:04.665Z,58.63
2019-01-23T23:28:35.714Z,72.27
2019-01-23T23:31:08.837Z,63.52
2019-01-23T23:33:36.499Z,75.60
2019-01-23T23:36:04.175Z,59.03
2019-01-23T23:38:32.917Z,61.03
2019-01-23T23:41:00.558Z,66.13
2019-01-23T23:43:29.598Z,69.40
2019-01-23T23:45:56.614Z,59.63
2019-01-23T23:48:24.511Z,64.93
2019-01-23T23:50:57.629Z,72.77
2019-01-23T23:53:28.272Z,74.90
2019-01-23T23:55:56.419Z,81.73
2019-01-23T23:58:27.919Z,80.70
